AAY208 KPGD-KABE
Flight info
| Callsign | AAY208 |
|---|---|
| Flight time | 2h 23m |
| Altitude | 36998 |
| Route | ROGAN LAL JINOS ETORE FEMON Q87 VIYAP Q69 ILLSA COURG BAMMY/N0284F090 T299 DUMMR |
| Aircraft | A20N/M-SDE2E3FGHIRWXY/LB1 |
Departure
| Time | 2026-04-26 19:19 |
|---|---|
| Airport | Punta Gorda Airport (KPGD) |
Arrival
| Time | 2026-04-26 21:43 |
|---|---|
| Airport | Lehigh Valley International Airport (KABE) |
| Time | Latitude | Longitude | Altitude | Speed | Heading |
|---|---|---|---|---|---|
| 2026-04-26 19:00 | 26.91621 | -81.99691 | 33 ft | 0 kts | 240° |
| 2026-04-26 19:09 | 26.91622 | -81.99689 | 33 ft | 2 kts | 240° |
| 2026-04-26 19:09 | 26.91631 | -81.99673 | 38 ft | 2 kts | 236° |
| 2026-04-26 19:10 | 26.91641 | -81.99658 | 31 ft | 2 kts | 229° |
| 2026-04-26 19:10 | 26.91653 | -81.99647 | 31 ft | 2 kts | 194° |
| 2026-04-26 19:10 | 26.91667 | -81.99649 | 29 ft | 1 kts | 148° |
| 2026-04-26 19:10 | 26.91668 | -81.99649 | 29 ft | 0 kts | 148° |
| 2026-04-26 19:12 | 26.91667 | -81.99649 | 29 ft | 1 kts | 148° |
| 2026-04-26 19:12 | 26.91631 | -81.99624 | 32 ft | 11 kts | 148° |
| 2026-04-26 19:12 | 26.91534 | -81.99561 | 33 ft | 23 kts | 150° |
| 2026-04-26 19:12 | 26.91408 | -81.99474 | 35 ft | 19 kts | 146° |
| 2026-04-26 19:13 | 26.91294 | -81.99393 | 34 ft | 19 kts | 150° |
| 2026-04-26 19:13 | 26.91201 | -81.99308 | 34 ft | 16 kts | 94° |
| 2026-04-26 19:13 | 26.91235 | -81.99198 | 33 ft | 13 kts | 90° |
| 2026-04-26 19:13 | 26.91243 | -81.99141 | 31 ft | 3 kts | 27° |
| 2026-04-26 19:14 | 26.91268 | -81.99145 | 33 ft | 5 kts | 341° |
| 2026-04-26 19:14 | 26.91332 | -81.99134 | 35 ft | 12 kts | 18° |
| 2026-04-26 19:14 | 26.91426 | -81.99096 | 36 ft | 14 kts | 17° |
| 2026-04-26 19:14 | 26.91476 | -81.99072 | 36 ft | 11 kts | 27° |
| 2026-04-26 19:15 | 26.91607 | -81.98993 | 38 ft | 19 kts | 30° |
| 2026-04-26 19:15 | 26.91723 | -81.98918 | 39 ft | 20 kts | 29° |
| 2026-04-26 19:15 | 26.91874 | -81.98821 | 39 ft | 28 kts | 30° |
| 2026-04-26 19:15 | 26.92043 | -81.98718 | 37 ft | 28 kts | 27° |
| 2026-04-26 19:16 | 26.92205 | -81.98620 | 37 ft | 25 kts | 28° |
| 2026-04-26 19:16 | 26.92357 | -81.98525 | 37 ft | 25 kts | 30° |
| 2026-04-26 19:16 | 26.92499 | -81.98432 | 39 ft | 23 kts | 28° |
| 2026-04-26 19:16 | 26.92635 | -81.98348 | 39 ft | 22 kts | 30° |
| 2026-04-26 19:17 | 26.92763 | -81.98271 | 40 ft | 20 kts | 43° |
| 2026-04-26 19:17 | 26.92770 | -81.98205 | 41 ft | 0 kts | 122° |
| 2026-04-26 19:18 | 26.92742 | -81.98170 | 42 ft | 12 kts | 150° |
| 2026-04-26 19:18 | 26.92662 | -81.98192 | 42 ft | 13 kts | 210° |
| 2026-04-26 19:18 | 26.92637 | -81.98207 | 42 ft | 0 kts | 208° |
| 2026-04-26 19:19 | 26.92455 | -81.98319 | 41 ft | 67 kts | 210° |
| 2026-04-26 19:19 | 26.91823 | -81.98719 | 39 ft | 144 kts | 208° |
| 2026-04-26 19:19 | 26.90810 | -81.99338 | 382 ft | 178 kts | 210° |
| 2026-04-26 19:19 | 26.89640 | -82.00033 | 915 ft | 206 kts | 211° |
| 2026-04-26 19:20 | 26.88218 | -82.00830 | 1156 ft | 252 kts | 209° |
| 2026-04-26 19:20 | 26.87122 | -82.01440 | 1307 ft | 279 kts | 208° |
| 2026-04-26 19:20 | 26.84606 | -82.02949 | 1641 ft | 332 kts | 215° |
| 2026-04-26 19:20 | 26.83010 | -82.04879 | 2498 ft | 342 kts | 238° |
| 2026-04-26 19:21 | 26.81833 | -82.07139 | 3632 ft | 330 kts | 244° |
| 2026-04-26 19:21 | 26.81074 | -82.09508 | 4763 ft | 318 kts | 259° |
| 2026-04-26 19:21 | 26.80960 | -82.11922 | 5874 ft | 307 kts | 277° |
| 2026-04-26 19:21 | 26.81538 | -82.14163 | 6987 ft | 295 kts | 296° |
| 2026-04-26 19:22 | 26.82698 | -82.15996 | 8120 ft | 284 kts | 314° |
| 2026-04-26 19:22 | 26.84235 | -82.17279 | 9221 ft | 277 kts | 331° |
| 2026-04-26 19:22 | 26.86048 | -82.18009 | 10193 ft | 279 kts | 346° |
| 2026-04-26 19:22 | 26.88042 | -82.18147 | 10676 ft | 299 kts | 2° |
| 2026-04-26 19:23 | 26.90107 | -82.17511 | 10923 ft | 320 kts | 22° |
| 2026-04-26 19:23 | 26.92110 | -82.16249 | 11189 ft | 340 kts | 29° |
| 2026-04-26 19:23 | 26.94116 | -82.14709 | 11461 ft | 357 kts | 33° |
| 2026-04-26 19:23 | 26.96152 | -82.13010 | 11755 ft | 371 kts | 34° |
| 2026-04-26 19:24 | 26.98231 | -82.11238 | 12205 ft | 378 kts | 34° |
| 2026-04-26 19:24 | 27.00347 | -82.09448 | 12725 ft | 383 kts | 34° |
| 2026-04-26 19:24 | 27.04670 | -82.05875 | 13827 ft | 389 kts | 33° |
| 2026-04-26 19:25 | 27.06872 | -82.04084 | 14320 ft | 392 kts | 32° |
| 2026-04-26 19:25 | 27.08342 | -82.02894 | 14639 ft | 395 kts | 33° |
| 2026-04-26 19:25 | 27.11318 | -82.00489 | 15308 ft | 400 kts | 33° |
| 2026-04-26 19:25 | 27.13583 | -81.98656 | 15824 ft | 403 kts | 33° |
| 2026-04-26 19:26 | 27.15866 | -81.96805 | 16341 ft | 407 kts | 33° |
| 2026-04-26 19:26 | 27.18172 | -81.94932 | 16839 ft | 410 kts | 33° |
| 2026-04-26 19:26 | 27.20514 | -81.93082 | 17316 ft | 413 kts | 29° |
| 2026-04-26 19:26 | 27.23042 | -81.91546 | 17775 ft | 413 kts | 21° |
| 2026-04-26 19:27 | 27.25756 | -81.90523 | 18233 ft | 412 kts | 10° |
| 2026-04-26 19:27 | 27.28589 | -81.90115 | 18616 ft | 411 kts | 359° |
| 2026-04-26 19:27 | 27.31454 | -81.90245 | 19025 ft | 412 kts | 353° |
| 2026-04-26 19:27 | 27.34310 | -81.90602 | 19424 ft | 413 kts | 350° |
| 2026-04-26 19:28 | 27.37171 | -81.91076 | 19828 ft | 416 kts | 348° |
| 2026-04-26 19:28 | 27.40031 | -81.91595 | 20240 ft | 418 kts | 348° |
| 2026-04-26 19:28 | 27.42920 | -81.92124 | 20659 ft | 421 kts | 348° |
| 2026-04-26 19:28 | 27.45821 | -81.92644 | 21078 ft | 424 kts | 349° |
| 2026-04-26 19:29 | 27.48718 | -81.93146 | 21511 ft | 427 kts | 349° |
| 2026-04-26 19:29 | 27.51671 | -81.93646 | 21946 ft | 430 kts | 349° |
| 2026-04-26 19:29 | 27.54640 | -81.94138 | 22342 ft | 433 kts | 349° |
| 2026-04-26 19:29 | 27.57635 | -81.94631 | 22775 ft | 436 kts | 349° |
| 2026-04-26 19:30 | 27.60652 | -81.95125 | 23204 ft | 439 kts | 349° |
| 2026-04-26 19:30 | 27.63685 | -81.95621 | 23595 ft | 442 kts | 349° |
| 2026-04-26 19:30 | 27.66741 | -81.96122 | 23941 ft | 445 kts | 349° |
| 2026-04-26 19:30 | 27.68770 | -81.96456 | 24188 ft | 446 kts | 349° |
| 2026-04-26 19:31 | 27.72890 | -81.97134 | 24665 ft | 448 kts | 349° |
| 2026-04-26 19:31 | 27.75982 | -81.97644 | 25015 ft | 450 kts | 349° |
| 2026-04-26 19:31 | 27.79085 | -81.98156 | 25353 ft | 452 kts | 349° |
| 2026-04-26 19:31 | 27.82207 | -81.98672 | 25695 ft | 454 kts | 349° |
| 2026-04-26 19:32 | 27.85341 | -81.99190 | 26029 ft | 456 kts | 349° |
| 2026-04-26 19:32 | 27.88446 | -81.99703 | 26346 ft | 458 kts | 349° |
| 2026-04-26 19:32 | 27.91605 | -82.00226 | 26668 ft | 460 kts | 349° |
| 2026-04-26 19:32 | 27.94780 | -82.00752 | 26971 ft | 462 kts | 349° |
| 2026-04-26 19:33 | 27.97956 | -82.01325 | 27272 ft | 462 kts | 346° |
| 2026-04-26 19:33 | 28.01097 | -82.02087 | 27689 ft | 460 kts | 345° |
| 2026-04-26 19:33 | 28.04217 | -82.02887 | 28138 ft | 458 kts | 344° |
| 2026-04-26 19:33 | 28.07311 | -82.03709 | 28585 ft | 456 kts | 343° |
| 2026-04-26 19:34 | 28.10399 | -82.04545 | 29015 ft | 455 kts | 343° |
| 2026-04-26 19:34 | 28.13477 | -82.05384 | 29435 ft | 454 kts | 343° |
| 2026-04-26 19:34 | 28.16545 | -82.06223 | 29861 ft | 452 kts | 343° |
| 2026-04-26 19:34 | 28.19560 | -82.07046 | 30247 ft | 451 kts | 343° |
| 2026-04-26 19:35 | 28.22606 | -82.07875 | 30582 ft | 450 kts | 343° |
| 2026-04-26 19:35 | 28.25646 | -82.08702 | 30922 ft | 449 kts | 343° |
| 2026-04-26 19:35 | 28.28681 | -82.09527 | 31278 ft | 448 kts | 343° |
| 2026-04-26 19:35 | 28.31704 | -82.10349 | 31630 ft | 446 kts | 343° |
| 2026-04-26 19:36 | 28.34727 | -82.11171 | 31967 ft | 445 kts | 343° |
| 2026-04-26 19:36 | 28.35745 | -82.11448 | 32082 ft | 445 kts | 343° |
| 2026-04-26 19:36 | 28.40752 | -82.12811 | 32642 ft | 443 kts | 343° |
| 2026-04-26 19:36 | 28.43763 | -82.13527 | 32953 ft | 444 kts | 348° |
| 2026-04-26 19:37 | 28.46857 | -82.13822 | 33268 ft | 447 kts | 356° |
| 2026-04-26 19:37 | 28.49933 | -82.13598 | 33553 ft | 450 kts | 5° |
| 2026-04-26 19:37 | 28.53013 | -82.12823 | 33845 ft | 453 kts | 11° |
| 2026-04-26 19:37 | 28.56051 | -82.11807 | 33932 ft | 456 kts | 13° |
| 2026-04-26 19:38 | 28.62080 | -82.09521 | 33938 ft | 455 kts | 15° |
| 2026-04-26 19:38 | 28.68071 | -82.07167 | 33938 ft | 454 kts | 14° |
| 2026-04-26 19:39 | 28.74013 | -82.04864 | 33927 ft | 454 kts | 14° |
| 2026-04-26 19:39 | 28.79998 | -82.02572 | 33929 ft | 453 kts | 14° |
| 2026-04-26 19:40 | 28.85985 | -82.00286 | 33927 ft | 453 kts | 14° |
| 2026-04-26 19:40 | 28.91953 | -81.98004 | 33924 ft | 452 kts | 14° |
| 2026-04-26 19:41 | 28.97941 | -81.95712 | 33927 ft | 455 kts | 14° |
| 2026-04-26 19:41 | 29.01962 | -81.94170 | 33924 ft | 455 kts | 14° |
| 2026-04-26 19:42 | 29.09952 | -81.91100 | 33928 ft | 454 kts | 13° |
| 2026-04-26 19:42 | 29.15906 | -81.88810 | 33929 ft | 454 kts | 13° |
| 2026-04-26 19:43 | 29.21893 | -81.86505 | 33926 ft | 454 kts | 13° |
| 2026-04-26 19:43 | 29.27876 | -81.84198 | 33926 ft | 453 kts | 13° |
| 2026-04-26 19:44 | 29.33852 | -81.81892 | 33928 ft | 452 kts | 13° |
| 2026-04-26 19:44 | 29.38812 | -81.79975 | 33925 ft | 452 kts | 13° |
| 2026-04-26 19:45 | 29.44762 | -81.77673 | 33925 ft | 451 kts | 13° |
| 2026-04-26 19:45 | 29.50718 | -81.75366 | 33932 ft | 451 kts | 13° |
| 2026-04-26 19:46 | 29.56666 | -81.73060 | 33927 ft | 450 kts | 13° |
| 2026-04-26 19:46 | 29.62586 | -81.70761 | 33930 ft | 449 kts | 13° |
| 2026-04-26 19:47 | 29.67527 | -81.68841 | 33924 ft | 449 kts | 13° |
| 2026-04-26 19:47 | 29.74408 | -81.66215 | 33914 ft | 448 kts | 12° |
| 2026-04-26 19:48 | 29.80331 | -81.64010 | 33923 ft | 447 kts | 12° |
| 2026-04-26 19:48 | 29.86247 | -81.61806 | 33928 ft | 447 kts | 12° |
| 2026-04-26 19:49 | 29.92162 | -81.59595 | 33929 ft | 446 kts | 12° |
| 2026-04-26 19:49 | 29.98070 | -81.57379 | 33930 ft | 446 kts | 12° |
| 2026-04-26 19:50 | 30.03973 | -81.55161 | 33935 ft | 445 kts | 12° |
| 2026-04-26 19:50 | 30.09852 | -81.52950 | 33929 ft | 444 kts | 11° |
| 2026-04-26 19:51 | 30.15726 | -81.50737 | 33926 ft | 443 kts | 11° |
| 2026-04-26 19:51 | 30.21556 | -81.48539 | 33935 ft | 442 kts | 11° |
| 2026-04-26 19:52 | 30.27403 | -81.46332 | 33935 ft | 441 kts | 11° |
| 2026-04-26 19:52 | 30.33224 | -81.44132 | 33933 ft | 440 kts | 11° |
| 2026-04-26 19:53 | 30.39040 | -81.41931 | 33936 ft | 439 kts | 11° |
| 2026-04-26 19:53 | 30.44871 | -81.39989 | 33934 ft | 430 kts | 2° |
| 2026-04-26 19:54 | 30.50719 | -81.39597 | 33934 ft | 419 kts | 353° |
| 2026-04-26 19:54 | 30.56531 | -81.39821 | 33935 ft | 417 kts | 351° |
| 2026-04-26 19:55 | 30.62331 | -81.40165 | 33937 ft | 416 kts | 350° |
| 2026-04-26 19:55 | 30.68112 | -81.40503 | 33937 ft | 416 kts | 351° |
| 2026-04-26 19:56 | 30.73864 | -81.40819 | 33931 ft | 415 kts | 351° |
| 2026-04-26 19:56 | 30.79650 | -81.41126 | 33928 ft | 415 kts | 351° |
| 2026-04-26 19:57 | 30.85385 | -81.41430 | 33923 ft | 414 kts | 350° |
| 2026-04-26 19:57 | 30.91154 | -81.41736 | 33912 ft | 414 kts | 350° |
| 2026-04-26 19:58 | 30.96914 | -81.42043 | 33911 ft | 413 kts | 350° |
| 2026-04-26 19:58 | 31.02660 | -81.42349 | 33911 ft | 413 kts | 350° |
| 2026-04-26 19:59 | 31.08398 | -81.42656 | 33909 ft | 412 kts | 350° |
| 2026-04-26 19:59 | 31.14134 | -81.42963 | 33905 ft | 412 kts | 350° |
| 2026-04-26 20:00 | 31.19871 | -81.43271 | 33908 ft | 412 kts | 350° |
| 2026-04-26 20:00 | 31.25571 | -81.43563 | 33925 ft | 412 kts | 351° |
| 2026-04-26 20:01 | 31.31319 | -81.43683 | 33925 ft | 413 kts | 352° |
| 2026-04-26 20:01 | 31.37068 | -81.43724 | 33925 ft | 413 kts | 352° |
| 2026-04-26 20:02 | 31.42795 | -81.43770 | 33924 ft | 414 kts | 352° |
| 2026-04-26 20:02 | 31.47652 | -81.43376 | 33916 ft | 424 kts | 2° |
| 2026-04-26 20:03 | 31.54345 | -81.41133 | 33914 ft | 434 kts | 10° |
| 2026-04-26 20:03 | 31.60030 | -81.38801 | 33912 ft | 435 kts | 11° |
| 2026-04-26 20:04 | 31.65738 | -81.36403 | 33910 ft | 436 kts | 11° |
| 2026-04-26 20:04 | 31.71477 | -81.34015 | 33912 ft | 437 kts | 11° |
| 2026-04-26 20:05 | 31.77240 | -81.31636 | 33911 ft | 439 kts | 11° |
| 2026-04-26 20:05 | 31.83018 | -81.29254 | 33898 ft | 441 kts | 11° |
| 2026-04-26 20:06 | 31.88798 | -81.26869 | 33895 ft | 442 kts | 11° |
| 2026-04-26 20:06 | 31.94626 | -81.24555 | 33887 ft | 438 kts | 6° |
| 2026-04-26 20:07 | 32.00574 | -81.23555 | 33891 ft | 428 kts | 356° |
| 2026-04-26 20:07 | 32.06485 | -81.23171 | 33918 ft | 427 kts | 354° |
| 2026-04-26 20:08 | 32.12435 | -81.22906 | 33916 ft | 428 kts | 354° |
| 2026-04-26 20:08 | 32.18397 | -81.22640 | 33916 ft | 429 kts | 354° |
| 2026-04-26 20:09 | 32.24360 | -81.22353 | 33919 ft | 429 kts | 354° |
| 2026-04-26 20:09 | 32.30337 | -81.22055 | 33919 ft | 429 kts | 354° |
| 2026-04-26 20:10 | 32.36299 | -81.21756 | 33919 ft | 429 kts | 354° |
| 2026-04-26 20:10 | 32.42221 | -81.21460 | 33922 ft | 428 kts | 354° |
| 2026-04-26 20:11 | 32.48186 | -81.21044 | 33925 ft | 433 kts | 359° |
| 2026-04-26 20:12 | 32.57154 | -81.19185 | 33935 ft | 436 kts | 2° |
| 2026-04-26 20:12 | 32.63094 | -81.17802 | 33948 ft | 436 kts | 3° |
| 2026-04-26 20:13 | 32.69040 | -81.16411 | 33946 ft | 435 kts | 3° |
| 2026-04-26 20:13 | 32.74982 | -81.15032 | 33939 ft | 433 kts | 3° |
| 2026-04-26 20:14 | 32.80899 | -81.13664 | 33945 ft | 432 kts | 3° |
| 2026-04-26 20:14 | 32.86770 | -81.12308 | 33947 ft | 432 kts | 3° |
| 2026-04-26 20:15 | 32.92688 | -81.10938 | 33948 ft | 432 kts | 3° |
| 2026-04-26 20:15 | 32.98594 | -81.09569 | 33944 ft | 432 kts | 3° |
| 2026-04-26 20:16 | 33.04502 | -81.08196 | 33950 ft | 432 kts | 3° |
| 2026-04-26 20:16 | 33.10412 | -81.06821 | 33950 ft | 432 kts | 3° |
| 2026-04-26 20:17 | 33.16285 | -81.05453 | 33954 ft | 432 kts | 3° |
| 2026-04-26 20:17 | 33.22226 | -81.04067 | 33972 ft | 432 kts | 3° |
| 2026-04-26 20:18 | 33.28122 | -81.02690 | 33973 ft | 432 kts | 4° |
| 2026-04-26 20:18 | 33.33998 | -81.01316 | 33974 ft | 432 kts | 4° |
| 2026-04-26 20:19 | 33.39901 | -80.99934 | 33982 ft | 432 kts | 4° |
| 2026-04-26 20:19 | 33.45807 | -80.98548 | 33980 ft | 432 kts | 4° |
| 2026-04-26 20:20 | 33.51678 | -80.97170 | 33981 ft | 432 kts | 4° |
| 2026-04-26 20:20 | 33.57608 | -80.95775 | 33964 ft | 433 kts | 4° |
| 2026-04-26 20:21 | 33.63512 | -80.94385 | 33963 ft | 433 kts | 4° |
| 2026-04-26 20:21 | 33.69436 | -80.92987 | 33966 ft | 433 kts | 4° |
| 2026-04-26 20:22 | 33.75320 | -80.91598 | 33969 ft | 433 kts | 4° |
| 2026-04-26 20:22 | 33.81235 | -80.90199 | 33966 ft | 433 kts | 4° |
| 2026-04-26 20:23 | 33.87150 | -80.88860 | 33964 ft | 432 kts | 2° |
| 2026-04-26 20:23 | 33.93080 | -80.87770 | 33967 ft | 431 kts | 1° |
| 2026-04-26 20:24 | 33.99021 | -80.86744 | 33967 ft | 431 kts | 1° |
| 2026-04-26 20:24 | 34.04926 | -80.85707 | 33968 ft | 431 kts | 1° |
| 2026-04-26 20:25 | 34.10869 | -80.84642 | 33990 ft | 431 kts | 1° |
| 2026-04-26 20:25 | 34.16814 | -80.83567 | 33994 ft | 432 kts | 1° |
| 2026-04-26 20:26 | 34.22762 | -80.82490 | 34008 ft | 432 kts | 1° |
| 2026-04-26 20:26 | 34.28710 | -80.81412 | 34014 ft | 433 kts | 1° |
| 2026-04-26 20:27 | 34.34633 | -80.80338 | 34015 ft | 433 kts | 2° |
| 2026-04-26 20:27 | 34.40600 | -80.79254 | 34012 ft | 434 kts | 2° |
| 2026-04-26 20:28 | 34.46579 | -80.78167 | 34012 ft | 434 kts | 2° |
| 2026-04-26 20:28 | 34.52567 | -80.77077 | 34026 ft | 435 kts | 2° |
| 2026-04-26 20:29 | 34.58561 | -80.75983 | 34030 ft | 436 kts | 2° |
| 2026-04-26 20:29 | 34.64551 | -80.74889 | 34032 ft | 436 kts | 2° |
| 2026-04-26 20:30 | 34.70563 | -80.73789 | 34035 ft | 436 kts | 2° |
| 2026-04-26 20:30 | 34.76521 | -80.72697 | 34038 ft | 436 kts | 2° |
| 2026-04-26 20:31 | 34.82527 | -80.71596 | 34038 ft | 436 kts | 2° |
| 2026-04-26 20:31 | 34.88547 | -80.70490 | 34028 ft | 437 kts | 2° |
| 2026-04-26 20:32 | 34.93552 | -80.69569 | 34030 ft | 437 kts | 2° |
| 2026-04-26 20:32 | 34.99561 | -80.68462 | 34031 ft | 437 kts | 3° |
| 2026-04-26 20:33 | 35.05607 | -80.67346 | 34036 ft | 438 kts | 3° |
| 2026-04-26 20:33 | 35.11600 | -80.66239 | 34036 ft | 438 kts | 3° |
| 2026-04-26 20:34 | 35.17635 | -80.65122 | 34039 ft | 438 kts | 3° |
| 2026-04-26 20:34 | 35.23683 | -80.64001 | 34063 ft | 439 kts | 4° |
| 2026-04-26 20:35 | 35.29687 | -80.62887 | 34062 ft | 439 kts | 4° |
| 2026-04-26 20:35 | 35.35724 | -80.61764 | 34067 ft | 439 kts | 4° |
| 2026-04-26 20:36 | 35.41778 | -80.60637 | 34064 ft | 439 kts | 4° |
| 2026-04-26 20:36 | 35.47827 | -80.59509 | 34065 ft | 439 kts | 4° |
| 2026-04-26 20:37 | 35.53822 | -80.58389 | 34070 ft | 439 kts | 4° |
| 2026-04-26 20:37 | 35.59868 | -80.57258 | 34062 ft | 439 kts | 4° |
| 2026-04-26 20:38 | 35.65909 | -80.56127 | 34063 ft | 439 kts | 4° |
| 2026-04-26 20:38 | 35.71952 | -80.54993 | 34060 ft | 439 kts | 4° |
| 2026-04-26 20:39 | 35.77958 | -80.53864 | 34064 ft | 439 kts | 4° |
| 2026-04-26 20:39 | 35.84001 | -80.52727 | 34059 ft | 439 kts | 4° |
| 2026-04-26 20:40 | 35.90049 | -80.51587 | 34060 ft | 439 kts | 4° |
| 2026-04-26 20:40 | 35.96091 | -80.50447 | 34061 ft | 439 kts | 4° |
| 2026-04-26 20:41 | 36.02140 | -80.49303 | 34059 ft | 440 kts | 5° |
| 2026-04-26 20:41 | 36.08197 | -80.48157 | 34058 ft | 440 kts | 5° |
| 2026-04-26 20:42 | 36.14211 | -80.47017 | 34064 ft | 440 kts | 5° |
| 2026-04-26 20:42 | 36.20280 | -80.45864 | 34083 ft | 441 kts | 5° |
| 2026-04-26 20:43 | 36.26351 | -80.44709 | 34095 ft | 441 kts | 5° |
| 2026-04-26 20:43 | 36.32428 | -80.43551 | 34104 ft | 442 kts | 5° |
| 2026-04-26 20:44 | 36.38469 | -80.42398 | 34112 ft | 442 kts | 5° |
| 2026-04-26 20:44 | 36.44553 | -80.41210 | 34116 ft | 442 kts | 6° |
| 2026-04-26 20:45 | 36.50641 | -80.39971 | 34113 ft | 443 kts | 6° |
| 2026-04-26 20:45 | 36.56726 | -80.38723 | 34108 ft | 443 kts | 6° |
| 2026-04-26 20:46 | 36.62825 | -80.37475 | 34103 ft | 444 kts | 6° |
| 2026-04-26 20:46 | 36.68932 | -80.36227 | 34099 ft | 445 kts | 6° |
| 2026-04-26 20:47 | 36.75013 | -80.35021 | 34106 ft | 444 kts | 5° |
| 2026-04-26 20:47 | 36.81149 | -80.34094 | 34101 ft | 444 kts | 4° |
| 2026-04-26 20:48 | 36.87306 | -80.33269 | 34102 ft | 444 kts | 4° |
| 2026-04-26 20:48 | 36.93453 | -80.32429 | 34110 ft | 445 kts | 4° |
| 2026-04-26 20:49 | 36.99609 | -80.31562 | 34115 ft | 445 kts | 4° |
| 2026-04-26 20:49 | 37.05762 | -80.30684 | 34120 ft | 445 kts | 4° |
| 2026-04-26 20:50 | 37.11924 | -80.29802 | 34122 ft | 445 kts | 4° |
| 2026-04-26 20:50 | 37.18036 | -80.28927 | 34123 ft | 445 kts | 4° |
| 2026-04-26 20:51 | 37.24198 | -80.28044 | 34126 ft | 445 kts | 4° |
| 2026-04-26 20:51 | 37.30367 | -80.27159 | 34124 ft | 445 kts | 4° |
| 2026-04-26 20:52 | 37.36476 | -80.26281 | 34120 ft | 444 kts | 5° |
| 2026-04-26 20:52 | 37.42630 | -80.25396 | 34118 ft | 444 kts | 5° |
| 2026-04-26 20:53 | 37.48774 | -80.24510 | 34111 ft | 444 kts | 5° |
| 2026-04-26 20:53 | 37.54917 | -80.23623 | 34109 ft | 444 kts | 5° |
| 2026-04-26 20:54 | 37.61001 | -80.22638 | 34086 ft | 444 kts | 9° |
| 2026-04-26 20:54 | 37.66837 | -80.19993 | 34080 ft | 449 kts | 27° |
| 2026-04-26 20:55 | 37.72053 | -80.15610 | 34081 ft | 451 kts | 33° |
| 2026-04-26 20:55 | 37.77086 | -80.10867 | 34084 ft | 451 kts | 34° |
| 2026-04-26 20:56 | 37.82068 | -80.06097 | 34119 ft | 451 kts | 34° |
| 2026-04-26 20:56 | 37.87087 | -80.01325 | 34125 ft | 451 kts | 34° |
| 2026-04-26 20:57 | 37.92103 | -79.96583 | 34131 ft | 450 kts | 34° |
| 2026-04-26 20:57 | 37.97139 | -79.91824 | 34124 ft | 450 kts | 34° |
| 2026-04-26 20:58 | 38.02159 | -79.87070 | 34129 ft | 450 kts | 34° |
| 2026-04-26 20:58 | 38.07143 | -79.82341 | 34127 ft | 450 kts | 34° |
| 2026-04-26 20:59 | 38.12154 | -79.77575 | 34123 ft | 450 kts | 34° |
| 2026-04-26 20:59 | 38.17164 | -79.72803 | 34126 ft | 450 kts | 34° |
| 2026-04-26 21:00 | 38.22177 | -79.68020 | 34123 ft | 450 kts | 34° |
| 2026-04-26 21:00 | 38.27181 | -79.63236 | 34122 ft | 450 kts | 34° |
| 2026-04-26 21:01 | 38.32151 | -79.58477 | 34128 ft | 449 kts | 34° |
| 2026-04-26 21:01 | 38.37148 | -79.53685 | 34133 ft | 449 kts | 34° |
| 2026-04-26 21:02 | 38.42142 | -79.48885 | 34137 ft | 449 kts | 34° |
| 2026-04-26 21:02 | 38.47121 | -79.44093 | 34146 ft | 449 kts | 34° |
| 2026-04-26 21:02 | 38.49617 | -79.41688 | 33994 ft | 448 kts | 34° |
| 2026-04-26 21:03 | 38.52103 | -79.39289 | 33716 ft | 447 kts | 34° |
| 2026-04-26 21:03 | 38.54561 | -79.36916 | 33475 ft | 447 kts | 34° |
| 2026-04-26 21:03 | 38.57038 | -79.34523 | 33207 ft | 448 kts | 34° |
| 2026-04-26 21:03 | 38.59526 | -79.32116 | 32940 ft | 448 kts | 34° |
| 2026-04-26 21:04 | 38.62014 | -79.29707 | 32684 ft | 449 kts | 34° |
| 2026-04-26 21:04 | 38.64508 | -79.27289 | 32423 ft | 449 kts | 34° |
| 2026-04-26 21:04 | 38.67000 | -79.24873 | 32164 ft | 449 kts | 34° |
| 2026-04-26 21:04 | 38.69486 | -79.22460 | 31901 ft | 450 kts | 34° |
| 2026-04-26 21:05 | 38.71988 | -79.20028 | 31671 ft | 450 kts | 34° |
| 2026-04-26 21:05 | 38.74459 | -79.17625 | 31423 ft | 450 kts | 34° |
| 2026-04-26 21:05 | 38.76954 | -79.15197 | 31170 ft | 451 kts | 34° |
| 2026-04-26 21:05 | 38.79458 | -79.12759 | 30932 ft | 451 kts | 34° |
| 2026-04-26 21:06 | 38.81958 | -79.10321 | 30688 ft | 451 kts | 35° |
| 2026-04-26 21:06 | 38.84458 | -79.07881 | 30449 ft | 451 kts | 35° |
| 2026-04-26 21:06 | 38.86953 | -79.05443 | 30202 ft | 451 kts | 35° |
| 2026-04-26 21:06 | 38.89455 | -79.02997 | 29928 ft | 452 kts | 35° |
| 2026-04-26 21:07 | 38.91962 | -79.00543 | 29651 ft | 452 kts | 35° |
| 2026-04-26 21:07 | 38.94464 | -78.98092 | 29368 ft | 453 kts | 35° |
| 2026-04-26 21:07 | 38.96941 | -78.95663 | 29103 ft | 454 kts | 35° |
| 2026-04-26 21:07 | 38.99450 | -78.93201 | 28826 ft | 454 kts | 35° |
| 2026-04-26 21:08 | 39.01963 | -78.90733 | 28564 ft | 455 kts | 35° |
| 2026-04-26 21:08 | 39.04484 | -78.88254 | 28295 ft | 455 kts | 35° |
| 2026-04-26 21:08 | 39.06999 | -78.85779 | 28034 ft | 456 kts | 35° |
| 2026-04-26 21:08 | 39.09523 | -78.83293 | 27762 ft | 456 kts | 35° |
| 2026-04-26 21:09 | 39.12049 | -78.80803 | 27503 ft | 457 kts | 35° |
| 2026-04-26 21:09 | 39.14574 | -78.78311 | 27247 ft | 457 kts | 35° |
| 2026-04-26 21:09 | 39.17073 | -78.75843 | 26995 ft | 458 kts | 35° |
| 2026-04-26 21:09 | 39.19538 | -78.73225 | 26742 ft | 460 kts | 41° |
| 2026-04-26 21:10 | 39.21830 | -78.70264 | 26488 ft | 461 kts | 44° |
| 2026-04-26 21:10 | 39.24007 | -78.67290 | 26240 ft | 462 kts | 45° |
| 2026-04-26 21:10 | 39.26177 | -78.64230 | 25996 ft | 463 kts | 45° |
| 2026-04-26 21:10 | 39.28339 | -78.61126 | 25752 ft | 464 kts | 46° |
| 2026-04-26 21:11 | 39.30488 | -78.58018 | 25509 ft | 464 kts | 46° |
| 2026-04-26 21:11 | 39.32643 | -78.54899 | 25275 ft | 465 kts | 46° |
| 2026-04-26 21:11 | 39.34793 | -78.51789 | 25034 ft | 465 kts | 46° |
| 2026-04-26 21:11 | 39.36950 | -78.48675 | 24799 ft | 464 kts | 46° |
| 2026-04-26 21:12 | 39.39105 | -78.45566 | 24561 ft | 462 kts | 46° |
| 2026-04-26 21:12 | 39.41225 | -78.42457 | 24324 ft | 461 kts | 47° |
| 2026-04-26 21:12 | 39.43247 | -78.39240 | 24090 ft | 461 kts | 49° |
| 2026-04-26 21:12 | 39.45201 | -78.35953 | 23862 ft | 460 kts | 50° |
| 2026-04-26 21:13 | 39.47114 | -78.32655 | 23607 ft | 458 kts | 51° |
| 2026-04-26 21:13 | 39.49021 | -78.29348 | 23327 ft | 457 kts | 51° |
| 2026-04-26 21:13 | 39.50916 | -78.26068 | 23062 ft | 455 kts | 50° |
| 2026-04-26 21:13 | 39.52817 | -78.22794 | 22791 ft | 453 kts | 50° |
| 2026-04-26 21:14 | 39.54689 | -78.19586 | 22526 ft | 451 kts | 50° |
| 2026-04-26 21:14 | 39.56576 | -78.16361 | 22262 ft | 449 kts | 50° |
| 2026-04-26 21:14 | 39.58466 | -78.13134 | 22003 ft | 447 kts | 50° |
| 2026-04-26 21:14 | 39.60343 | -78.09930 | 21741 ft | 445 kts | 50° |
| 2026-04-26 21:15 | 39.62210 | -78.06743 | 21491 ft | 443 kts | 50° |
| 2026-04-26 21:15 | 39.64073 | -78.03557 | 21237 ft | 442 kts | 50° |
| 2026-04-26 21:15 | 39.65924 | -78.00389 | 20991 ft | 440 kts | 50° |
| 2026-04-26 21:15 | 39.67769 | -77.97226 | 20745 ft | 438 kts | 50° |
| 2026-04-26 21:16 | 39.69603 | -77.94081 | 20496 ft | 436 kts | 50° |
| 2026-04-26 21:16 | 39.71434 | -77.90937 | 20249 ft | 434 kts | 50° |
| 2026-04-26 21:16 | 39.73227 | -77.87853 | 20009 ft | 433 kts | 50° |
| 2026-04-26 21:16 | 39.75043 | -77.84728 | 19767 ft | 431 kts | 49° |
| 2026-04-26 21:17 | 39.76846 | -77.81622 | 19528 ft | 429 kts | 49° |
| 2026-04-26 21:17 | 39.78640 | -77.78528 | 19288 ft | 427 kts | 49° |
| 2026-04-26 21:17 | 39.80450 | -77.75474 | 19051 ft | 425 kts | 48° |
| 2026-04-26 21:17 | 39.82309 | -77.72501 | 18814 ft | 423 kts | 47° |
| 2026-04-26 21:18 | 39.84190 | -77.69583 | 18598 ft | 420 kts | 46° |
| 2026-04-26 21:18 | 39.86085 | -77.66675 | 18348 ft | 419 kts | 46° |
| 2026-04-26 21:18 | 39.87967 | -77.63791 | 18078 ft | 417 kts | 46° |
| 2026-04-26 21:18 | 39.89839 | -77.60913 | 17825 ft | 416 kts | 46° |
| 2026-04-26 21:19 | 39.91701 | -77.58034 | 17562 ft | 414 kts | 46° |
| 2026-04-26 21:19 | 39.93562 | -77.55170 | 17297 ft | 412 kts | 45° |
| 2026-04-26 21:19 | 39.95515 | -77.52449 | 17044 ft | 410 kts | 43° |
| 2026-04-26 21:19 | 39.97500 | -77.49779 | 16791 ft | 409 kts | 42° |
| 2026-04-26 21:20 | 39.99496 | -77.47151 | 16535 ft | 407 kts | 42° |
| 2026-04-26 21:20 | 40.00823 | -77.45421 | 16373 ft | 406 kts | 42° |
| 2026-04-26 21:20 | 40.03478 | -77.41976 | 16040 ft | 405 kts | 41° |
| 2026-04-26 21:20 | 40.05470 | -77.39392 | 15799 ft | 404 kts | 42° |
| 2026-04-26 21:21 | 40.07455 | -77.36813 | 15549 ft | 402 kts | 42° |
| 2026-04-26 21:21 | 40.09439 | -77.34230 | 15310 ft | 401 kts | 42° |
| 2026-04-26 21:21 | 40.11407 | -77.31663 | 15066 ft | 400 kts | 42° |
| 2026-04-26 21:21 | 40.13369 | -77.29099 | 14831 ft | 399 kts | 42° |
| 2026-04-26 21:22 | 40.14697 | -77.27363 | 14667 ft | 398 kts | 42° |
| 2026-04-26 21:22 | 40.16627 | -77.24836 | 14437 ft | 397 kts | 42° |
| 2026-04-26 21:22 | 40.18572 | -77.22287 | 14194 ft | 395 kts | 42° |
| 2026-04-26 21:23 | 40.22445 | -77.17203 | 13690 ft | 392 kts | 42° |
| 2026-04-26 21:23 | 40.24370 | -77.14674 | 13427 ft | 391 kts | 42° |
| 2026-04-26 21:23 | 40.26272 | -77.12146 | 13158 ft | 390 kts | 44° |
| 2026-04-26 21:23 | 40.27950 | -77.09335 | 12897 ft | 392 kts | 54° |
| 2026-04-26 21:24 | 40.29203 | -77.06153 | 12654 ft | 395 kts | 65° |
| 2026-04-26 21:24 | 40.29916 | -77.02661 | 12399 ft | 399 kts | 78° |
| 2026-04-26 21:24 | 40.30141 | -76.99082 | 12153 ft | 400 kts | 84° |
| 2026-04-26 21:24 | 40.30162 | -76.95448 | 11909 ft | 399 kts | 88° |
| 2026-04-26 21:25 | 40.30072 | -76.91827 | 11663 ft | 398 kts | 89° |
| 2026-04-26 21:25 | 40.29938 | -76.88214 | 11420 ft | 397 kts | 90° |
| 2026-04-26 21:25 | 40.29800 | -76.84599 | 11177 ft | 395 kts | 89° |
| 2026-04-26 21:25 | 40.29673 | -76.81009 | 10937 ft | 393 kts | 89° |
| 2026-04-26 21:26 | 40.29635 | -76.77449 | 10697 ft | 389 kts | 84° |
| 2026-04-26 21:26 | 40.30018 | -76.73961 | 10451 ft | 384 kts | 73° |
| 2026-04-26 21:26 | 40.30703 | -76.70586 | 10212 ft | 381 kts | 70° |
| 2026-04-26 21:26 | 40.31512 | -76.67287 | 9971 ft | 379 kts | 68° |
| 2026-04-26 21:27 | 40.32374 | -76.64088 | 9678 ft | 363 kts | 67° |
| 2026-04-26 21:27 | 40.33220 | -76.61062 | 9401 ft | 345 kts | 66° |
| 2026-04-26 21:27 | 40.34036 | -76.58167 | 9143 ft | 330 kts | 66° |
| 2026-04-26 21:27 | 40.34803 | -76.55436 | 8885 ft | 317 kts | 67° |
| 2026-04-26 21:28 | 40.35541 | -76.52781 | 8619 ft | 304 kts | 67° |
| 2026-04-26 21:28 | 40.36248 | -76.50217 | 8358 ft | 293 kts | 67° |
| 2026-04-26 21:28 | 40.36926 | -76.47738 | 8108 ft | 284 kts | 67° |
| 2026-04-26 21:28 | 40.37580 | -76.45338 | 7851 ft | 275 kts | 68° |
| 2026-04-26 21:29 | 40.38214 | -76.42999 | 7595 ft | 270 kts | 68° |
| 2026-04-26 21:29 | 40.38843 | -76.40681 | 7352 ft | 269 kts | 68° |
| 2026-04-26 21:29 | 40.39467 | -76.38380 | 7194 ft | 268 kts | 68° |
| 2026-04-26 21:29 | 40.40089 | -76.36079 | 7081 ft | 267 kts | 68° |
| 2026-04-26 21:30 | 40.40709 | -76.33786 | 6955 ft | 266 kts | 68° |
| 2026-04-26 21:30 | 40.41336 | -76.31492 | 6833 ft | 266 kts | 68° |
| 2026-04-26 21:30 | 40.41963 | -76.29216 | 6716 ft | 265 kts | 68° |
| 2026-04-26 21:30 | 40.42584 | -76.26974 | 6595 ft | 264 kts | 68° |
| 2026-04-26 21:31 | 40.43214 | -76.24703 | 6469 ft | 264 kts | 68° |
| 2026-04-26 21:31 | 40.43842 | -76.22438 | 6327 ft | 263 kts | 68° |
| 2026-04-26 21:31 | 40.44468 | -76.20176 | 6065 ft | 262 kts | 68° |
| 2026-04-26 21:31 | 40.45089 | -76.17929 | 5811 ft | 261 kts | 69° |
| 2026-04-26 21:32 | 40.45706 | -76.15693 | 5544 ft | 260 kts | 69° |
| 2026-04-26 21:32 | 40.46319 | -76.13467 | 5309 ft | 258 kts | 69° |
| 2026-04-26 21:32 | 40.46826 | -76.11208 | 5150 ft | 258 kts | 77° |
| 2026-04-26 21:32 | 40.47136 | -76.08893 | 5025 ft | 258 kts | 79° |
| 2026-04-26 21:33 | 40.47395 | -76.06590 | 4901 ft | 258 kts | 81° |
| 2026-04-26 21:33 | 40.47640 | -76.04253 | 4771 ft | 258 kts | 81° |
| 2026-04-26 21:33 | 40.47879 | -76.01918 | 4634 ft | 257 kts | 81° |
| 2026-04-26 21:33 | 40.48111 | -75.99592 | 4506 ft | 257 kts | 81° |
| 2026-04-26 21:34 | 40.48344 | -75.97259 | 4367 ft | 257 kts | 81° |
| 2026-04-26 21:34 | 40.48576 | -75.94938 | 4245 ft | 257 kts | 81° |
| 2026-04-26 21:34 | 40.48806 | -75.92611 | 4117 ft | 256 kts | 81° |
| 2026-04-26 21:34 | 40.49036 | -75.90289 | 3991 ft | 256 kts | 81° |
| 2026-04-26 21:35 | 40.49263 | -75.87977 | 3866 ft | 255 kts | 81° |
| 2026-04-26 21:35 | 40.49490 | -75.85672 | 3739 ft | 254 kts | 81° |
| 2026-04-26 21:35 | 40.49716 | -75.83369 | 3612 ft | 254 kts | 81° |
| 2026-04-26 21:35 | 40.49942 | -75.81067 | 3487 ft | 254 kts | 81° |
| 2026-04-26 21:36 | 40.50167 | -75.78772 | 3361 ft | 253 kts | 81° |
| 2026-04-26 21:36 | 40.50388 | -75.76518 | 3224 ft | 251 kts | 81° |
| 2026-04-26 21:36 | 40.50612 | -75.74224 | 3112 ft | 252 kts | 81° |
| 2026-04-26 21:36 | 40.50832 | -75.71950 | 2976 ft | 246 kts | 81° |
| 2026-04-26 21:37 | 40.51041 | -75.69768 | 2838 ft | 235 kts | 82° |
| 2026-04-26 21:37 | 40.51312 | -75.67704 | 2695 ft | 224 kts | 72° |
| 2026-04-26 21:37 | 40.51965 | -75.65900 | 2584 ft | 216 kts | 56° |
| 2026-04-26 21:37 | 40.52858 | -75.64327 | 2500 ft | 210 kts | 51° |
| 2026-04-26 21:38 | 40.53740 | -75.62895 | 2396 ft | 197 kts | 50° |
| 2026-04-26 21:38 | 40.54576 | -75.61552 | 2371 ft | 185 kts | 50° |
| 2026-04-26 21:38 | 40.55353 | -75.60303 | 2351 ft | 167 kts | 50° |
| 2026-04-26 21:38 | 40.56048 | -75.59180 | 2360 ft | 148 kts | 50° |
| 2026-04-26 21:39 | 40.56675 | -75.58159 | 2376 ft | 141 kts | 50° |
| 2026-04-26 21:39 | 40.57291 | -75.57159 | 2383 ft | 140 kts | 50° |
| 2026-04-26 21:39 | 40.57881 | -75.56198 | 2403 ft | 129 kts | 50° |
| 2026-04-26 21:39 | 40.58437 | -75.55307 | 2370 ft | 125 kts | 49° |
| 2026-04-26 21:40 | 40.58975 | -75.54426 | 2279 ft | 125 kts | 50° |
| 2026-04-26 21:40 | 40.59526 | -75.53525 | 2115 ft | 127 kts | 50° |
| 2026-04-26 21:40 | 40.60082 | -75.52620 | 1939 ft | 128 kts | 51° |
| 2026-04-26 21:40 | 40.60639 | -75.51709 | 1751 ft | 128 kts | 51° |
| 2026-04-26 21:41 | 40.61197 | -75.50795 | 1572 ft | 128 kts | 52° |
| 2026-04-26 21:41 | 40.61756 | -75.49880 | 1393 ft | 128 kts | 51° |
| 2026-04-26 21:41 | 40.62313 | -75.48967 | 1196 ft | 128 kts | 50° |
| 2026-04-26 21:41 | 40.62868 | -75.48058 | 1020 ft | 127 kts | 50° |
| 2026-04-26 21:42 | 40.63421 | -75.47152 | 836 ft | 127 kts | 51° |
| 2026-04-26 21:42 | 40.63971 | -75.46250 | 679 ft | 128 kts | 51° |
| 2026-04-26 21:42 | 40.64519 | -75.45354 | 486 ft | 122 kts | 46° |
| 2026-04-26 21:42 | 40.65032 | -75.44515 | 399 ft | 108 kts | 49° |
| 2026-04-26 21:43 | 40.65358 | -75.43986 | 389 ft | 45 kts | 51° |
| 2026-04-26 21:43 | 40.65421 | -75.43765 | 393 ft | 17 kts | 134° |
| 2026-04-26 21:43 | 40.65380 | -75.43722 | 394 ft | 0 kts | 144° |
| 2026-04-26 21:43 | 40.65370 | -75.43713 | 394 ft | 8 kts | 144° |
| 2026-04-26 21:44 | 40.65297 | -75.43653 | 394 ft | 13 kts | 146° |
| 2026-04-26 21:44 | 40.65269 | -75.43622 | 395 ft | 0 kts | 135° |